Flight Track Log - Related Links

Times and Time Zones

All times are in EDT time to prevent confusion due to time zone crossing. See the JBU1733 flight status page for this flight to view local times or setup timezone preferences in your user account.

Time Position Orientation Groundspeed Altitude Reporting Facility
EDT Latitude Longitude Course Direction KTS MPH feet Rate Location/Type
Tue 06:53:36 PM 44.3844 -73.1197 196° South 201 231 3,700  Level Boston Center
Tue 06:54:00 PM 44.2175 -73.2331 190° South  Level FlightAware Approximate
Tue 06:54:37 PM 44.3178 -73.1075 173° South 231 266 6,200  Level Boston Center
Tue 06:55:00 PM 44.1380 -73.2733 195° South  Level FlightAware Approximate
Tue 06:55:36 PM 44.2344 -73.0919 172° South 269 310 9,300  Level Boston Center
Tue 06:56:00 PM 44.0552 -73.3038 194° South  Level FlightAware Approximate
Tue 06:56:37 PM 44.1575 -73.0853 176° South 279 321 11,800  Level Boston Center
Tue 06:57:00 PM 43.9720 -73.3316 194° South  Level FlightAware Approximate
Tue 06:57:38 PM 44.0781 -73.1250 200° South 290 334 13,500  Level Boston Center
Tue 06:58:00 PM 43.8891 -73.3611 196° South  Level FlightAware Approximate
Tue 06:58:36 PM 43.9922 -73.1703 201° Southwest 321 369 15,700  Level Boston Center
Tue 06:59:37 PM 43.9292 -73.2500 222° Southwest 320 368 17,700 1,884 Climbing Boston Center
Tue 07:00:37 PM 43.9158 -73.3739 262° West 304 350 19,500 1,835 Climbing Boston Center
Tue 07:01:38 PM 43.9042 -73.5033 263° West 330 380 21,400 1,765 Climbing Boston Center
Tue 07:02:36 PM 43.8511 -73.6089 235° Southwest 341 392 23,000 1,613 Climbing Boston Center
Tue 07:03:37 PM 43.7489 -73.6356 191° South 337 388 24,600 1,328 Climbing Boston Center
Tue 07:04:38 PM 43.6528 -73.6481 185° South 360 414 25,700 843 Climbing Boston Center
Tue 07:05:38 PM 43.5358 -73.6658 186° South 400 460 26,300 605 Climbing Boston Center
Tue 07:06:37 PM 43.4106 -73.6861 187° South 436 502 26,900 807 Climbing Boston Center
Tue 07:07:37 PM 43.2853 -73.7064 187° South 455 524 27,900 555 Climbing Boston Center
Tue 07:08:36 PM 43.1411 -73.7347 188° South 479 551 28,000 50 Climbing Boston Center
Tue 07:09:36 PM 43.0117 -73.7606 188° South 479 551 28,000  Level Boston Center
Tue 07:10:37 PM 42.8844 -73.7803 186° South 479 551 28,000  Level Boston Center
Tue 07:11:37 PM 42.7528 -73.8031 187° South 473 544 28,000  Level Boston Center
Tue 07:12:38 PM 42.6256 -73.8086 182° South 473 544 28,000  Level Boston Center
Tue 07:13:38 PM 42.5150 -73.8119 181° South 460 529 28,000  Level Boston Center
Tue 07:14:36 PM 42.3858 -73.8175 182° South 460 529 28,000  Level Boston Center
Tue 07:15:36 PM 42.2586 -73.8175 180° South 460 529 28,000  Level Boston Center
Tue 07:16:38 PM 42.1333 -73.8314 185° South 460 529 28,000  Level Boston Center
Tue 07:17:35 PM 42.0058 -73.8706 193° South 465 535 28,000 -305 Level Boston Center
Tue 07:19:35 PM 41.7581 -73.9467 193° South 467 537 27,100 -1,100 Descending New York Center
Tue 07:20:35 PM 41.6383 -73.9853 194° South 462 532 24,700 -2,350 Descending New York Center
Tue 07:21:35 PM 41.5272 -74.0189 193° South 441 507 22,400 -2,150 Descending New York Center
Tue 07:22:35 PM 41.4136 -74.0547 193° South 427 491 20,400 -1,200 Descending New York Center
Tue 07:23:35 PM 41.3006 -74.0767 188° South 414 476 20,000 -200 Descending New York Center
Tue 07:24:35 PM 41.1919 -74.0908 186° South 414 476 20,000 -250 Level New York Center
Tue 07:25:35 PM 41.0789 -74.1100 187° South 414 476 19,500 -500 Descending New York Center
Tue 07:26:35 PM 40.9597 -74.1261 186° South 398 458 19,000 -400 Descending New York Center
Tue 07:27:35 PM 40.8692 -74.0886 163° South 370 426 18,700 -1,250 Descending New York Center
Tue 07:28:35 PM 40.7542 -74.0283 158° South 395 455 16,500 -2,050 Descending New York Center
Tue 07:29:35 PM 40.6667 -73.9531 147° Southeast 395 455 14,600 -1,950 Descending New York Center
Tue 07:30:35 PM 40.5878 -73.8700 141° Southeast 372 428 12,600 -1,800 Descending New York Center
Tue 07:31:35 PM 40.5150 -73.7794 137° Southeast 367 422 11,000 -1,300 Descending New York Center
Tue 07:32:35 PM 40.4506 -73.6892 133° Southeast 355 409 10,000 -1,000 Descending New York Center
Tue 07:33:35 PM 40.4553 -73.5806 87° East 284 327 9,000 -1,200 Descending New York Center
Tue 07:34:35 PM 40.5067 -73.5197 42° Northeast 219 252 7,600 -1,650 Descending New York Center
Tue 07:35:35 PM 40.5767 -73.4681 29° Northeast 234 269 5,700 -1,650 Descending New York Center
Tue 07:36:35 PM 40.6361 -73.4239 29° Northeast 264 304 4,300 -900 Descending New York Center
Tue 07:37:35 PM 40.7067 -73.4347 353° North 236 272 3,900 -200 Descending New York Center
Tue 07:38:35 PM 40.7539 -73.4639 335° Northwest 215 247 3,900 -250 Level New York Center
Tue 07:39:35 PM 40.7833 -73.5392 297° West 200 230 3,400 -765 Descending New York Center
Tue 07:41:04 PM 40.7833 -73.6333 270° West 190 219 2,000 -564 Descending New York TRACON
Tue 07:42:04 PM 40.7500 -73.6833 229° Southwest 177 204 2,000 -300 Level New York TRACON
Tue 07:43:04 PM 40.7000 -73.7000 194° South 144 166 1,400 -571 Descending New York TRACON
Tue 07:44:10 PM 40.6667 -73.7333 217° Southwest 127 146 800 -545 Descending New York TRACON
Tue 07:46:00 PM 40.6398 -73.7789 161° South  Level Estimated

Login

Don't have an account? Register now (free) for customized features, flight alerts, and more!